Time;durP1;ratioP1;P1;durP2;ratioP2;P2;SDS_P1;SDS_P2;PMS_P1;PMS_P2;Temp;Humidity;BMP_temperature;BMP_pressure;BME280_temperature;BME280_humidity;BME280_pressure;Samples;Min_cycle;Max_cycle;Signal;HPM_P1;HPM_P2
2022/05/21 00:00:38;;;;;;;14.98;9.60;;;11.70;99.90;;;;;;5145322;27;20042;-66
2022/05/21 00:03:05;;;;;;;16.30;10.70;;;11.60;99.90;;;;;;5141533;27;20491;-66
2022/05/21 00:05:33;;;;;;;15.05;10.02;;;11.60;99.90;;;;;;5146047;27;20066;-65
2022/05/21 00:07:59;;;;;;;15.13;10.13;;;11.60;99.90;;;;;;5145256;27;20122;-65
2022/05/21 00:10:27;;;;;;;18.13;11.73;;;11.70;99.90;;;;;;5143733;27;20383;-65
2022/05/21 00:12:53;;;;;;;15.80;10.73;;;11.60;99.90;;;;;;5143185;27;20093;-66
2022/05/21 00:15:22;;;;;;;20.42;12.00;;;11.70;99.90;;;;;;5144528;27;20055;-67
2022/05/21 00:17:49;;;;;;;19.85;13.00;;;11.70;99.90;;;;;;5143577;27;20120;-66
2022/05/21 00:23:07;;;;;;;21.80;13.10;;;11.70;99.90;;;;;;5139308;27;20048;-66
2022/05/21 00:25:33;;;;;;;21.60;13.48;;;11.70;99.90;;;;;;5140713;27;20401;-67
2022/05/21 00:27:58;;;;;;;20.73;14.02;;;11.70;99.90;;;;;;5144900;27;20455;-66
2022/05/21 00:30:24;;;;;;;24.33;14.93;;;11.70;99.90;;;;;;5143657;27;20088;-66
2022/05/21 00:32:49;;;;;;;24.77;14.38;;;11.70;99.90;;;;;;5122456;27;20054;-67
2022/05/21 00:35:15;;;;;;;24.65;16.33;;;11.70;99.90;;;;;;5144468;27;20031;-67
2022/05/21 00:37:40;;;;;;;30.35;16.55;;;11.70;99.90;;;;;;5143800;27;20051;-66
2022/05/21 00:40:06;;;;;;;26.38;17.77;;;11.70;99.90;;;;;;5145496;27;20030;-65
2022/05/21 00:42:33;;;;;;;28.45;19.15;;;11.70;99.90;;;;;;5141633;27;20031;-66
2022/05/21 00:44:58;;;;;;;29.75;17.95;;;11.70;99.90;;;;;;5144098;27;20026;-66
2022/05/21 00:47:24;;;;;;;28.02;18.60;;;11.80;99.90;;;;;;5145484;27;20477;-65
2022/05/21 00:49:49;;;;;;;24.67;18.30;;;11.80;99.90;;;;;;5140743;27;20046;-67
2022/05/21 00:52:19;;;;;;;27.67;18.88;;;11.80;99.90;;;;;;5142474;27;20030;-67
2022/05/21 00:54:51;;;;;;;28.98;18.98;;;11.80;99.90;;;;;;5144980;27;20038;-66
2022/05/21 00:57:25;;;;;;;28.27;17.63;;;11.80;99.90;;;;;;5122981;27;20042;-66
2022/05/21 00:59:56;;;;;;;28.98;18.58;;;11.80;99.90;;;;;;5140695;27;20047;-65
2022/05/21 01:02:32;;;;;;;28.40;19.10;;;11.80;99.90;;;;;;5141069;27;20035;-66
2022/05/21 01:04:59;;;;;;;25.73;17.08;;;11.90;99.90;;;;;;5140622;27;20041;-68
2022/05/21 01:07:25;;;;;;;27.38;17.67;;;12.00;99.90;;;;;;5144399;27;20379;-66
2022/05/21 01:09:54;;;;;;;27.35;16.90;;;12.10;99.90;;;;;;5143274;27;20043;-66
2022/05/21 01:12:22;;;;;;;26.25;17.38;;;12.00;99.90;;;;;;5141829;27;20057;-67
2022/05/21 01:14:51;;;;;;;24.48;16.45;;;12.00;99.90;;;;;;5144382;27;20491;-66
2022/05/21 01:17:20;;;;;;;26.85;17.63;;;12.00;99.90;;;;;;5144080;27;20047;-65
2022/05/21 01:20:02;;;;;;;23.27;16.40;;;12.10;99.90;;;;;;5142576;27;20042;-66
2022/05/21 01:22:29;;;;;;;28.30;17.80;;;12.10;99.90;;;;;;5140586;27;20122;-66
2022/05/21 01:24:55;;;;;;;27.55;18.08;;;12.10;99.90;;;;;;5143924;27;20058;-66
2022/05/21 01:27:24;;;;;;;27.00;18.38;;;12.10;99.90;;;;;;5143866;27;20023;-66
2022/05/21 01:29:51;;;;;;;30.05;18.67;;;12.10;99.90;;;;;;5139561;27;20459;-67
2022/05/21 01:32:18;;;;;;;25.52;18.20;;;12.20;99.90;;;;;;5140663;27;20405;-66
2022/05/21 01:34:44;;;;;;;28.77;19.65;;;12.20;99.90;;;;;;5142339;27;20035;-66
2022/05/21 01:37:10;;;;;;;25.33;18.95;;;12.20;99.90;;;;;;5138960;27;20511;-67
2022/05/21 01:39:36;;;;;;;25.73;19.58;;;12.20;99.90;;;;;;5143015;27;20436;-66
2022/05/21 01:42:02;;;;;;;32.50;20.90;;;12.20;99.90;;;;;;5102921;27;20106;-66
2022/05/21 01:44:40;;;;;;;30.67;19.83;;;12.20;99.90;;;;;;5142226;27;20459;-66
2022/05/21 01:47:11;;;;;;;32.00;20.05;;;12.20;99.90;;;;;;5142439;27;20216;-66
2022/05/21 01:49:38;;;;;;;30.75;19.58;;;12.20;99.90;;;;;;5143286;27;20027;-65
2022/05/21 01:52:06;;;;;;;28.52;19.35;;;12.20;99.90;;;;;;5140048;27;20053;-66
2022/05/21 01:54:32;;;;;;;25.45;19.98;;;12.30;99.90;;;;;;5142116;27;20132;-67
2022/05/21 01:56:59;;;;;;;30.05;20.27;;;12.30;99.90;;;;;;5121556;27;20062;-66
2022/05/21 01:59:25;;;;;;;25.20;20.35;;;12.40;99.90;;;;;;5143990;27;20050;-66
2022/05/21 02:01:51;;;;;;;31.50;22.67;;;12.30;99.90;;;;;;5141588;27;20083;-66
2022/05/21 02:04:17;;;;;;;26.40;21.65;;;12.40;99.90;;;;;;5143180;27;20060;-66
2022/05/21 02:06:43;;;;;;;29.65;21.42;;;12.40;99.90;;;;;;5143647;27;20539;-66
2022/05/21 02:09:10;;;;;;;27.65;21.60;;;12.40;99.90;;;;;;5141897;27;20061;-66
2022/05/21 02:11:36;;;;;;;30.88;22.73;;;12.50;99.90;;;;;;5142389;27;20030;-65
2022/05/21 02:14:02;;;;;;;26.90;20.83;;;12.50;99.90;;;;;;5141839;27;20043;-66
2022/05/21 02:16:28;;;;;;;27.90;21.77;;;12.50;99.90;;;;;;5145390;27;20047;-66
2022/05/21 02:18:54;;;;;;;30.02;21.48;;;12.50;99.90;;;;;;5147247;27;20061;-66
2022/05/21 02:21:20;;;;;;;26.60;19.05;;;12.50;99.90;;;;;;5147168;27;20273;-66
2022/05/21 02:23:46;;;;;;;25.38;20.70;;;12.60;99.90;;;;;;5145669;27;20035;-66
2022/05/21 02:26:12;;;;;;;29.02;19.17;;;12.60;99.90;;;;;;5147679;27;20099;-66
2022/05/21 02:28:38;;;;;;;31.85;19.42;;;12.60;99.90;;;;;;5147341;27;20439;-68
2022/05/21 02:31:03;;;;;;;26.35;17.77;;;12.70;99.90;;;;;;5146117;27;20078;-66
2022/05/21 02:33:30;;;;;;;25.95;17.45;;;12.70;99.90;;;;;;5141985;27;20079;-66
2022/05/21 02:35:56;;;;;;;25.27;16.90;;;12.70;99.90;;;;;;5125663;27;20116;-66
2022/05/21 02:41:14;;;;;;;25.83;15.60;;;12.80;99.90;;;;;;5144823;27;20051;-66
2022/05/21 02:43:40;;;;;;;27.73;15.80;;;12.90;99.90;;;;;;5145402;27;20038;-66
2022/05/21 02:46:06;;;;;;;31.95;15.00;;;12.80;99.90;;;;;;5147481;27;20371;-67
2022/05/21 02:48:32;;;;;;;23.95;15.02;;;12.90;99.90;;;;;;5146200;27;20041;-66
2022/05/21 02:50:58;;;;;;;25.38;15.48;;;12.90;99.90;;;;;;5146557;27;20046;-68
2022/05/21 02:53:24;;;;;;;29.27;14.68;;;12.90;99.90;;;;;;5146772;27;20085;-66
2022/05/21 02:55:52;;;;;;;26.65;14.88;;;12.90;99.90;;;;;;5142551;27;20325;-66
2022/05/21 02:58:19;;;;;;;22.85;12.95;;;12.90;99.90;;;;;;5146293;27;20035;-67
2022/05/21 03:00:45;;;;;;;24.92;13.60;;;13.00;99.90;;;;;;5147163;27;20819;-66
2022/05/21 03:03:12;;;;;;;22.75;11.98;;;13.10;99.90;;;;;;5144391;27;20482;-68
2022/05/21 03:05:37;;;;;;;20.40;11.18;;;13.10;99.90;;;;;;5145690;27;20035;-66
2022/05/21 03:10:20;;;;;;;21.65;11.00;;;13.00;99.90;;;;;;5146744;27;20049;-66
2022/05/21 03:10:56;;;;;;;26.05;10.55;;;13.00;99.90;;;;;;5142079;27;20039;-66
2022/05/21 03:13:23;;;;;;;22.00;9.02;;;13.00;99.90;;;;;;5146283;27;20035;-67
2022/05/21 03:15:49;;;;;;;23.40;9.20;;;13.10;99.90;;;;;;5144793;27;20055;-66
2022/05/21 03:18:16;;;;;;;21.83;7.70;;;13.10;99.90;;;;;;5146215;27;20429;-67
2022/05/21 03:20:42;;;;;;;22.05;8.27;;;13.10;99.90;;;;;;5146545;27;20027;-66
2022/05/21 03:23:09;;;;;;;20.50;8.05;;;13.20;99.90;;;;;;5144152;27;20111;-66
2022/05/21 03:25:34;;;;;;;21.17;6.50;;;13.10;99.90;;;;;;5145945;27;20035;-66
2022/05/21 03:28:01;;;;;;;20.60;7.47;;;13.10;99.90;;;;;;5146283;27;20038;-66
2022/05/21 03:30:30;;;;;;;17.00;6.55;;;13.10;99.90;;;;;;5144511;27;20031;-66
2022/05/21 03:32:56;;;;;;;19.02;6.68;;;13.20;99.90;;;;;;5145326;27;20039;-66
2022/05/21 03:35:22;;;;;;;21.00;7.45;;;13.20;99.90;;;;;;5146284;27;20447;-67
2022/05/21 03:37:49;;;;;;;18.42;6.47;;;13.20;99.90;;;;;;5144155;27;20494;-66
2022/05/21 03:40:22;;;;;;;18.83;6.10;;;13.30;99.90;;;;;;5146130;27;20039;-67
2022/05/21 03:42:47;;;;;;;16.80;6.30;;;13.20;99.90;;;;;;5146103;27;20073;-66
2022/05/21 03:45:14;;;;;;;17.30;5.75;;;13.30;99.90;;;;;;5145096;27;20351;-66
2022/05/21 03:47:41;;;;;;;18.40;6.07;;;13.30;99.90;;;;;;5123699;27;20614;-67
2022/05/21 03:50:17;;;;;;;21.42;6.00;;;13.30;99.90;;;;;;5146049;27;20181;-67
2022/05/21 03:52:42;;;;;;;19.33;5.97;;;13.30;99.90;;;;;;5145105;27;20073;-66
2022/05/21 03:55:09;;;;;;;16.63;5.25;;;13.40;99.90;;;;;;5144276;27;20043;-67
2022/05/21 03:57:35;;;;;;;21.70;5.32;;;13.40;99.90;;;;;;5145523;27;20042;-66
2022/05/21 04:00:02;;;;;;;19.48;5.47;;;13.50;99.90;;;;;;5142902;27;20368;-67
2022/05/21 04:02:28;;;;;;;19.17;5.20;;;13.60;99.90;;;;;;5143363;27;20042;-67
2022/05/21 04:04:54;;;;;;;19.08;5.03;;;13.70;99.90;;;;;;5145741;27;20039;-66
2022/05/21 04:07:19;;;;;;;13.90;4.03;;;13.80;99.90;;;;;;5145657;27;20027;-66
2022/05/21 04:09:45;;;;;;;18.80;4.63;;;13.80;99.90;;;;;;5144134;27;20042;-67
2022/05/21 04:12:10;;;;;;;16.98;3.58;;;13.80;99.90;;;;;;5145291;27;20035;-66
2022/05/21 04:14:36;;;;;;;19.58;3.70;;;13.90;99.90;;;;;;5144744;27;20075;-66
2022/05/21 04:17:04;;;;;;;13.15;3.25;;;13.80;99.90;;;;;;5144307;27;20053;-66
2022/05/21 04:19:31;;;;;;;16.25;3.83;;;13.80;99.90;;;;;;5140303;27;20043;-66
2022/05/21 04:21:57;;;;;;;18.77;4.20;;;13.80;99.90;;;;;;5143795;27;20465;-66
2022/05/21 04:24:23;;;;;;;19.52;3.53;;;13.80;99.90;;;;;;5144030;27;20042;-66
2022/05/21 04:26:50;;;;;;;14.75;3.88;;;13.80;99.90;;;;;;5145847;27;20039;-66
2022/05/21 04:29:16;;;;;;;21.30;3.78;;;13.80;99.90;;;;;;5144852;27;20031;-66
2022/05/21 04:31:42;;;;;;;16.58;3.88;;;13.80;99.90;;;;;;5143237;27;20344;-68
2022/05/21 04:34:08;;;;;;;17.88;4.10;;;13.70;99.90;;;;;;5145724;27;20038;-66
2022/05/21 04:36:34;;;;;;;21.30;3.75;;;13.90;99.90;;;;;;5143203;27;20043;-67
2022/05/21 04:39:00;;;;;;;18.05;3.65;;;13.90;99.90;;;;;;5144126;27;20042;-66
2022/05/21 04:41:26;;;;;;;15.95;3.67;;;13.90;99.90;;;;;;5145358;27;20045;-67
2022/05/21 04:43:53;;;;;;;18.40;3.97;;;14.00;99.90;;;;;;5142931;27;20038;-67
2022/05/21 04:46:20;;;;;;;14.27;3.72;;;13.80;99.90;;;;;;5143773;27;20035;-66
2022/05/21 04:48:47;;;;;;;16.63;3.67;;;14.00;99.90;;;;;;5145140;27;20034;-67
2022/05/21 04:51:13;;;;;;;17.42;3.38;;;14.00;99.90;;;;;;5143814;27;20102;-66
2022/05/21 04:53:39;;;;;;;20.23;3.55;;;14.00;99.90;;;;;;5143348;27;20042;-67
2022/05/21 04:56:05;;;;;;;14.43;3.58;;;14.00;99.90;;;;;;5145100;27;20043;-66
2022/05/21 04:58:31;;;;;;;13.65;3.30;;;14.10;99.90;;;;;;5143253;27;20031;-66
2022/05/21 05:00:57;;;;;;;14.23;3.47;;;14.10;99.90;;;;;;5144048;27;20031;-66
2022/05/21 05:03:23;;;;;;;18.23;3.47;;;14.30;99.90;;;;;;5144092;27;20058;-66
2022/05/21 05:05:49;;;;;;;13.65;3.05;;;14.50;99.90;;;;;;5121044;27;20073;-66
2022/05/21 05:08:17;;;;;;;16.73;3.63;;;14.40;99.90;;;;;;5142158;27;20035;-66
2022/05/21 05:10:44;;;;;;;21.63;3.33;;;14.30;99.90;;;;;;5144915;27;20141;-66
2022/05/21 05:13:10;;;;;;;14.70;3.15;;;14.30;99.90;;;;;;5139616;27;20101;-66
2022/05/21 05:15:36;;;;;;;15.07;4.00;;;14.40;99.90;;;;;;5143427;27;20379;-65
2022/05/21 05:18:08;;;;;;;18.55;4.43;;;14.60;99.90;;;;;;5144394;27;20043;-67
2022/05/21 05:20:34;;;;;;;15.75;3.90;;;14.50;99.90;;;;;;5140389;27;20462;-66
2022/05/21 05:23:00;;;;;;;14.18;3.42;;;14.50;99.90;;;;;;5142213;27;20332;-66
2022/05/21 05:25:26;;;;;;;16.05;3.40;;;14.50;99.90;;;;;;5144714;27;20030;-66
2022/05/21 05:27:52;;;;;;;15.60;4.50;;;14.30;99.90;;;;;;5142597;27;20039;-67
2022/05/21 05:30:19;;;;;;;17.25;3.53;;;14.40;99.90;;;;;;5122411;27;20062;-65
2022/05/21 05:32:45;;;;;;;19.15;3.13;;;14.40;99.90;;;;;;5143519;27;20039;-66
2022/05/21 05:35:12;;;;;;;14.20;3.38;;;14.40;99.90;;;;;;5142374;27;20034;-65
2022/05/21 05:37:38;;;;;;;17.20;4.25;;;14.40;99.90;;;;;;5143142;27;20061;-66
2022/05/21 05:40:08;;;;;;;20.30;4.53;;;14.50;99.90;;;;;;5144274;27;20078;-66
2022/05/21 05:42:35;;;;;;;11.70;3.63;;;15.00;99.90;;;;;;5138497;27;20039;-66
2022/05/21 05:45:01;;;;;;;15.60;3.53;;;15.60;99.90;;;;;;5142831;27;20045;-66
2022/05/21 05:47:27;;;;;;;14.05;3.92;;;16.20;99.90;;;;;;5143942;27;20023;-66
2022/05/21 05:49:53;;;;;;;16.58;3.28;;;16.30;99.90;;;;;;5141763;27;20047;-66
2022/05/21 05:52:19;;;;;;;11.43;3.25;;;16.40;99.90;;;;;;5121447;27;20034;-67
2022/05/21 05:54:45;;;;;;;11.68;2.97;;;16.60;99.90;;;;;;5144590;27;20352;-66
2022/05/21 05:57:11;;;;;;;13.65;2.80;;;16.10;99.90;;;;;;5142198;27;20447;-66
2022/05/21 05:59:50;;;;;;;22.15;3.28;;;16.00;99.90;;;;;;5143120;27;20039;-66
2022/05/21 06:05:12;;;;;;;14.65;3.55;;;15.40;99.90;;;;;;5141981;27;20035;-66
2022/05/21 06:07:45;;;;;;;13.45;3.60;;;15.20;99.90;;;;;;5142911;27;20026;-66
2022/05/21 06:10:14;;;;;;;16.38;4.13;;;15.00;99.90;;;;;;5138498;27;20459;-66
2022/05/21 06:12:40;;;;;;;13.35;3.25;;;14.90;99.90;;;;;;5142882;27;20076;-66
2022/05/21 06:15:07;;;;;;;17.30;3.47;;;14.80;99.90;;;;;;5141598;27;20062;-66
2022/05/21 06:17:33;;;;;;;13.70;3.08;;;15.00;99.90;;;;;;5143645;27;20106;-67
2022/05/21 06:19:58;;;;;;;14.90;3.40;;;15.40;99.90;;;;;;5143182;27;20594;-67
2022/05/21 06:22:24;;;;;;;19.42;3.25;;;15.80;99.90;;;;;;5140840;27;20042;-66
2022/05/21 06:24:51;;;;;;;12.63;2.90;;;15.80;99.90;;;;;;5143910;27;20031;-66
2022/05/21 06:27:16;;;;;;;13.82;3.00;;;15.70;99.90;;;;;;5142751;27;20035;-66
2022/05/21 06:29:42;;;;;;;13.50;3.17;;;15.50;99.90;;;;;;5141862;27;20045;-66
2022/05/21 06:32:08;;;;;;;12.77;3.38;;;15.50;99.90;;;;;;5142802;27;20031;-67
2022/05/21 06:34:37;;;;;;;13.45;3.13;;;15.70;99.90;;;;;;5142387;27;20046;-66
2022/05/21 06:37:09;;;;;;;11.50;3.28;;;16.00;99.90;;;;;;5141797;27;20031;-69
2022/05/21 06:39:36;;;;;;;11.40;3.17;;;16.10;99.90;;;;;;5138813;27;20042;-65
2022/05/21 06:42:02;;;;;;;12.23;3.25;;;15.80;99.90;;;;;;5142638;27;20027;-67
2022/05/21 06:44:28;;;;;;;15.52;3.22;;;15.70;99.90;;;;;;5141590;27;20027;-66
2022/05/21 06:46:55;;;;;;;12.68;3.30;;;15.70;99.90;;;;;;5143169;27;20045;-66
2022/05/21 06:49:21;;;;;;;15.63;3.33;;;15.80;99.90;;;;;;5142871;27;20039;-65
2022/05/21 06:51:48;;;;;;;13.43;3.15;;;16.00;99.90;;;;;;5141015;27;20359;-65
2022/05/21 06:54:14;;;;;;;13.40;3.15;;;16.00;99.90;;;;;;5143018;27;20046;-66
2022/05/21 06:56:40;;;;;;;9.65;2.70;;;16.20;99.90;;;;;;5142612;27;20034;-66
2022/05/21 06:59:06;;;;;;;12.52;3.70;;;16.10;99.90;;;;;;5123275;27;20038;-67
2022/05/21 07:01:32;;;;;;;15.40;3.17;;;16.20;99.90;;;;;;5143825;27;20058;-65
2022/05/21 07:03:57;;;;;;;12.40;2.85;;;16.40;99.90;;;;;;5146175;27;20076;-66
2022/05/21 07:09:08;;;;;;;15.10;3.08;;;16.40;99.90;;;;;;5144832;27;20051;-66
2022/05/21 07:11:34;;;;;;;8.68;2.60;;;16.50;99.90;;;;;;5145787;27;20042;-66
2022/05/21 07:13:59;;;;;;;15.10;2.88;;;16.40;99.90;;;;;;5143138;27;20035;-66
2022/05/21 07:16:25;;;;;;;12.00;3.25;;;16.40;99.90;;;;;;5144445;27;20076;-66
2022/05/21 07:18:51;;;;;;;13.10;2.90;;;16.30;99.90;;;;;;5146594;27;20038;-66
2022/05/21 07:21:18;;;;;;;10.40;2.65;;;16.10;99.90;;;;;;5145917;27;20462;-66
2022/05/21 07:23:44;;;;;;;13.07;3.30;;;16.20;99.90;;;;;;5142102;27;20030;-68
2022/05/21 07:26:11;;;;;;;9.10;2.80;;;16.20;99.90;;;;;;5141205;27;20042;-66
2022/05/21 07:28:36;;;;;;;12.40;2.53;;;16.10;99.90;;;;;;5145743;27;20433;-66
2022/05/21 07:31:03;;;;;;;10.68;2.75;;;16.00;99.90;;;;;;5147162;27;20080;-66
2022/05/21 07:33:28;;;;;;;14.02;3.13;;;16.00;99.90;;;;;;5143123;27;20103;-66
2022/05/21 07:35:54;;;;;;;9.82;2.60;;;15.80;99.90;;;;;;5145795;27;20227;-66
2022/05/21 07:38:20;;;;;;;14.18;2.90;;;15.80;99.90;;;;;;5124430;27;20046;-66
2022/05/21 07:40:47;;;;;;;11.68;2.75;;;15.70;99.90;;;;;;5144550;27;20088;-67
2022/05/21 07:43:34;;;;;;;12.10;2.72;;;15.80;99.90;;;;;;5141785;27;20043;-66
2022/05/21 07:46:01;;;;;;;12.05;3.05;;;16.10;99.90;;;;;;5145272;27;20054;-66
2022/05/21 07:48:27;;;;;;;12.60;3.05;;;16.30;99.90;;;;;;5145995;27;20034;-66
2022/05/21 07:50:57;;;;;;;13.88;2.35;;;16.60;99.90;;;;;;5146696;27;20053;-66
2022/05/21 07:53:27;;;;;;;12.90;2.30;;;16.70;99.90;;;;;;5134010;27;20070;-66
2022/05/21 07:55:54;;;;;;;10.02;2.72;;;16.70;99.90;;;;;;5128023;27;20398;-65
2022/05/21 07:58:22;;;;;;;8.27;2.17;;;16.80;99.90;;;;;;5118617;27;20122;-66
2022/05/21 08:00:48;;;;;;;9.70;2.33;;;16.90;99.90;;;;;;5148770;27;20063;-65
2022/05/21 08:03:14;;;;;;;11.98;2.95;;;16.90;99.90;;;;;;5125295;27;20354;-67
2022/05/21 08:05:41;;;;;;;12.05;2.15;;;16.80;99.90;;;;;;5127423;27;20095;-66
2022/05/21 08:08:08;;;;;;;8.73;2.22;;;16.50;99.90;;;;;;5123236;27;20462;-66
2022/05/21 08:10:35;;;;;;;10.63;2.63;;;16.30;99.90;;;;;;5130584;27;20071;-67
2022/05/21 08:13:01;;;;;;;11.45;2.40;;;16.10;99.90;;;;;;5126962;27;20031;-66
2022/05/21 08:15:27;;;;;;;11.13;2.30;;;16.20;99.90;;;;;;5122170;27;20049;-66
2022/05/21 08:17:53;;;;;;;8.77;2.50;;;16.20;99.90;;;;;;5124780;27;20035;-65
2022/05/21 08:20:19;;;;;;;7.38;1.98;;;16.30;99.90;;;;;;5135912;27;20035;-65
2022/05/21 08:28:15;;;;;;;8.75;2.42;;;16.30;99.90;;;;;;5132869;27;20047;-66
2022/05/21 08:30:43;;;;;;;13.55;2.97;;;16.60;99.90;;;;;;5132675;27;20031;-66
2022/05/21 08:33:10;;;;;;;8.88;2.58;;;16.70;99.90;;;;;;5135646;27;20118;-66
2022/05/21 08:35:38;;;;;;;8.88;2.25;;;16.70;99.90;;;;;;5136610;27;20035;-65
2022/05/21 08:38:08;;;;;;;10.77;2.60;;;17.00;99.90;;;;;;5136360;27;20035;-65
2022/05/21 08:40:55;;;;;;;10.50;2.38;;;16.90;99.90;;;;;;5124850;27;20563;-64
2022/05/21 08:43:30;;;;;;;14.30;3.38;;;17.00;99.90;;;;;;5112659;27;20041;-65
2022/05/21 08:46:08;;;;;;;6.45;2.42;;;17.00;99.90;;;;;;5135567;27;20344;-66
2022/05/21 08:48:35;;;;;;;13.38;2.55;;;17.20;99.90;;;;;;5135523;27;20530;-66
2022/05/21 08:51:11;;;;;;;10.73;3.08;;;17.30;99.90;;;;;;5120279;27;20042;-66
2022/05/21 08:53:44;;;;;;;8.93;2.45;;;17.20;99.90;;;;;;5141373;27;20488;-66
2022/05/21 08:56:09;;;;;;;9.85;2.10;;;17.00;99.90;;;;;;5140517;27;20038;-66
2022/05/21 08:58:47;;;;;;;7.35;2.20;;;17.00;99.90;;;;;;5144449;27;20034;-66
2022/05/21 09:01:18;;;;;;;9.00;2.25;;;17.00;99.90;;;;;;5121863;27;20461;-67
2022/05/21 09:03:44;;;;;;;8.50;2.20;;;17.10;99.90;;;;;;5141437;27;20447;-67
2022/05/21 09:06:31;;;;;;;12.82;2.55;;;17.30;99.90;;;;;;5118474;27;20047;-66
2022/05/21 09:09:06;;;;;;;10.93;2.47;;;17.40;99.90;;;;;;5140470;27;20034;-67
2022/05/21 09:12:07;;;;;;;13.35;2.40;;;17.30;99.90;;;;;;5139121;27;20091;-65
2022/05/21 09:14:42;;;;;;;11.90;2.22;;;17.20;99.90;;;;;;5127271;27;20079;-66
2022/05/21 09:17:30;;;;;;;11.80;2.30;;;17.40;99.90;;;;;;5142469;27;20085;-66
2022/05/21 09:20:04;;;;;;;8.65;2.63;;;17.50;99.90;;;;;;5141587;27;20092;-67
2022/05/21 09:22:30;;;;;;;;;;;17.30;99.90;;;;;;5139169;27;20080;-66
2022/05/21 09:24:58;;;;;;;9.82;2.53;;;17.30;99.90;;;;;;5141717;27;19915;-66
2022/05/21 09:27:42;;;;;;;10.63;2.60;;;17.30;99.90;;;;;;5144199;27;20124;-66
2022/05/21 09:30:28;;;;;;;15.40;3.42;;;17.30;99.90;;;;;;5142455;27;20482;-66
2022/05/21 09:32:57;;;;;;;9.60;2.50;;;17.40;99.90;;;;;;5118065;27;20384;-66
2022/05/21 09:35:32;;;;;;;12.18;2.83;;;17.50;99.90;;;;;;5137740;27;20442;-66
2022/05/21 09:38:25;;;;;;;8.63;1.80;;;17.30;99.90;;;;;;5139811;27;20152;-66
2022/05/21 09:41:03;;;;;;;5.53;1.87;;;17.40;99.90;;;;;;5115903;27;20058;-66
2022/05/21 09:46:18;;;;;;;8.85;2.20;;;17.50;99.90;;;;;;5140154;27;20035;-67
2022/05/21 09:48:46;;;;;;;8.65;2.10;;;17.60;99.90;;;;;;5142374;27;20030;-66
2022/05/21 09:51:32;;;;;;;11.00;2.88;;;17.60;99.90;;;;;;5138763;27;20048;-66
2022/05/21 09:53:59;;;;;;;9.43;2.35;;;17.60;99.90;;;;;;5140113;27;20035;-66
2022/05/21 09:56:32;;;;;;;10.32;2.25;;;17.70;99.90;;;;;;5144126;27;20072;-68
2022/05/21 09:59:12;;;;;;;11.88;2.60;;;17.50;99.90;;;;;;5143131;27;20528;-66
2022/05/21 10:01:47;;;;;;;5.10;2.00;;;17.60;99.90;;;;;;5141085;27;20027;-66
2022/05/21 10:04:17;;;;;;;9.68;2.33;;;17.70;99.90;;;;;;5142070;27;20092;-65
2022/05/21 10:12:59;;;;;;;5.88;2.40;;;17.90;99.90;;;;;;5140639;27;20383;-66
2022/05/21 10:15:29;;;;;;;7.70;2.45;;;17.90;99.90;;;;;;5141500;27;20055;-66
2022/05/21 10:18:23;;;;;;;7.43;2.42;;;17.80;99.90;;;;;;5132526;27;20058;-64
2022/05/21 10:20:55;;;;;;;9.25;2.58;;;17.90;99.90;;;;;;5118124;27;20055;-65
2022/05/21 10:24:04;;;;;;;8.88;2.65;;;17.60;99.90;;;;;;5125226;27;20086;-65
2022/05/21 10:26:55;;;;;;;9.32;2.00;;;17.70;99.90;;;;;;5041236;28;20052;-65
2022/05/21 10:29:34;;;;;;;10.60;2.05;;;17.90;99.90;;;;;;5053747;28;20037;-65
2022/05/21 10:32:26;;;;;;;10.70;3.22;;;17.80;99.90;;;;;;5126062;27;20434;-66
2022/05/21 10:35:28;;;;;;;7.60;2.17;;;17.60;99.90;;;;;;5139238;27;20096;-66
2022/05/21 10:38:24;;;;;;;9.73;2.67;;;17.70;99.90;;;;;;5143862;27;20043;-65
2022/05/21 10:41:02;;;;;;;7.35;2.10;;;18.00;99.90;;;;;;5142230;27;20047;-66
2022/05/21 10:43:57;;;;;;;9.52;2.28;;;17.90;99.90;;;;;;5144054;27;20091;-66
2022/05/21 10:46:25;;;;;;;;;;;18.10;99.90;;;;;;5145384;27;20106;-66
2022/05/21 10:48:55;;;;;;;8.07;2.20;;;18.00;99.90;;;;;;5134002;27;19923;-67
2022/05/21 10:51:23;;;;;;;8.15;2.33;;;18.20;99.90;;;;;;5135597;27;20043;-67
2022/05/21 10:54:08;;;;;;;7.88;2.08;;;18.20;99.90;;;;;;5135987;27;20118;-66
2022/05/21 10:57:02;;;;;;;8.48;1.90;;;18.00;99.90;;;;;;5142064;27;20091;-66
2022/05/21 10:59:48;;;;;;;6.15;2.20;;;18.00;99.90;;;;;;5144194;27;20448;-67
2022/05/21 11:02:28;;;;;;;5.20;1.73;;;17.80;99.90;;;;;;5141454;27;20047;-65
2022/05/21 11:05:40;;;;;;;7.47;1.88;;;18.00;99.90;;;;;;5143761;27;20035;-66
2022/05/21 11:08:27;;;;;;;7.22;2.15;;;18.00;99.90;;;;;;5144111;27;20031;-65
2022/05/21 11:11:14;;;;;;;6.53;2.08;;;18.30;99.90;;;;;;5143317;27;20100;-66
2022/05/21 11:14:01;;;;;;;8.20;1.77;;;18.20;99.90;;;;;;5145247;27;20045;-66
2022/05/21 11:16:41;;;;;;;11.20;2.47;;;18.10;99.90;;;;;;5144486;27;20426;-66
2022/05/21 11:19:22;;;;;;;7.80;2.08;;;18.00;99.90;;;;;;5145220;27;20451;-65
2022/05/21 11:21:51;;;;;;;12.02;2.55;;;18.00;99.90;;;;;;5143662;27;20046;-66
2022/05/21 11:24:25;;;;;;;11.30;2.65;;;18.00;99.90;;;;;;5145177;27;20042;-66
2022/05/21 11:26:54;;;;;;;9.02;2.63;;;18.00;99.90;;;;;;5141779;27;20054;-66
2022/05/21 11:29:40;;;;;;;10.77;2.70;;;17.90;99.90;;;;;;5145300;27;20103;-66
2022/05/21 11:37:53;;;;;;;9.45;2.30;;;17.90;99.90;;;;;;5144553;27;20075;-66
2022/05/21 11:40:52;;;;;;;9.27;2.72;;;17.90;99.90;;;;;;5145718;27;20034;-66
2022/05/21 11:43:21;;;;;;;10.38;2.55;;;18.00;99.90;;;;;;5142119;27;20394;-66
2022/05/21 11:46:08;;;;;;;7.18;2.10;;;18.20;99.90;;;;;;5122823;27;20031;-63
2022/05/21 11:48:34;;;;;;;8.82;2.10;;;18.10;99.90;;;;;;5143085;27;20062;-63
2022/05/21 11:51:18;;;;;;;8.15;2.33;;;18.20;99.90;;;;;;5144228;27;20355;-63
2022/05/21 11:53:45;;;;;;;13.15;2.75;;;18.00;99.90;;;;;;5145209;27;20039;-63
2022/05/21 11:56:12;;;;;;;8.45;2.55;;;18.10;99.90;;;;;;5141672;27;20050;-64
2022/05/21 11:58:59;;;;;;;8.65;2.33;;;18.10;99.90;;;;;;5144804;27;20079;-63
2022/05/21 12:01:38;;;;;;;8.02;2.22;;;18.10;99.90;;;;;;5142157;27;20042;-63
2022/05/21 12:04:06;;;;;;;8.48;2.75;;;18.00;99.90;;;;;;5143319;27;20089;-65
2022/05/21 12:06:39;;;;;;;8.55;2.30;;;18.10;99.90;;;;;;5145237;27;20073;-65
2022/05/21 12:09:20;;;;;;;9.00;2.65;;;18.10;99.90;;;;;;5124444;27;20294;-65
2022/05/21 12:11:46;;;;;;;12.05;5.25;;;18.20;99.90;;;;;;5141710;27;20050;-66
2022/05/21 12:14:27;;;;;;;8.45;2.35;;;18.40;99.90;;;;;;5142421;27;20034;-66
2022/05/21 12:17:01;;;;;;;12.88;3.13;;;18.70;99.90;;;;;;5117294;27;20143;-66
2022/05/21 12:19:45;;;;;;;;;;;18.80;99.90;;;;;;5144966;27;20038;-66
2022/05/21 12:22:34;;;;;;;6.60;2.22;;;19.00;99.90;;;;;;5137867;27;19925;-66
2022/05/21 12:25:00;;;;;;;8.27;2.33;;;19.00;99.90;;;;;;5140449;27;20042;-67
2022/05/21 12:27:27;;;;;;;9.02;2.30;;;19.00;99.90;;;;;;5144551;27;20328;-67
2022/05/21 12:30:13;;;;;;;12.35;2.92;;;19.00;99.90;;;;;;5144007;27;20049;-65
2022/05/21 12:32:39;;;;;;;12.77;2.42;;;19.10;99.90;;;;;;5141865;27;20158;-67
2022/05/21 12:35:32;;;;;;;8.60;2.78;;;18.90;99.90;;;;;;5143314;27;20026;-66
2022/05/21 12:38:07;;;;;;;11.35;2.65;;;18.80;99.90;;;;;;5102671;27;20054;-66
2022/05/21 12:41:10;;;;;;;8.75;2.30;;;18.70;99.90;;;;;;5141488;27;20425;-67
2022/05/21 12:43:45;;;;;;;6.68;2.22;;;18.80;99.90;;;;;;5133758;27;20043;-67
2022/05/21 12:46:33;;;;;;;7.32;2.42;;;18.70;99.90;;;;;;5140116;27;20035;-66
2022/05/21 12:49:04;;;;;;;8.15;2.53;;;18.50;99.90;;;;;;5119586;27;20043;-66
2022/05/21 12:51:41;;;;;;;6.70;2.08;;;18.70;99.90;;;;;;5138878;27;20462;-69
2022/05/21 12:54:22;;;;;;;11.15;2.42;;;18.80;99.90;;;;;;5143977;27;20354;-67
2022/05/21 12:56:49;;;;;;;8.10;2.10;;;18.60;99.90;;;;;;5121220;27;20050;-66
2022/05/21 12:59:27;;;;;;;11.63;3.20;;;18.70;99.90;;;;;;5143171;27;20115;-66
2022/05/21 13:02:14;;;;;;;10.20;2.83;;;18.70;99.90;;;;;;5140837;27;20600;-66
2022/05/21 13:04:42;;;;;;;11.35;2.53;;;19.00;99.90;;;;;;5143370;27;20404;-67
2022/05/21 13:07:20;;;;;;;8.63;1.88;;;19.20;99.90;;;;;;5139934;27;20088;-67
2022/05/21 13:10:00;;;;;;;5.57;2.03;;;19.20;99.90;;;;;;5142888;27;20118;-66
2022/05/21 13:12:33;;;;;;;8.82;2.78;;;19.10;99.90;;;;;;5142249;27;20113;-66
2022/05/21 13:14:59;;;;;;;8.05;2.30;;;19.20;99.90;;;;;;5143057;27;20390;-66
2022/05/21 13:17:37;;;;;;;8.85;2.63;;;19.10;99.90;;;;;;5144851;27;20047;-66
2022/05/21 13:20:28;;;;;;;8.50;2.20;;;18.90;99.90;;;;;;5123882;27;20046;-66
2022/05/21 13:23:09;;;;;;;9.52;2.40;;;18.60;99.90;;;;;;5119961;27;20102;-66
2022/05/21 13:25:36;;;;;;;9.15;2.45;;;18.70;99.90;;;;;;5139939;27;20092;-67
2022/05/21 13:28:15;;;;;;;8.40;2.40;;;18.70;99.90;;;;;;5122850;27;20119;-65